Strona główna
METAR-TAF:

METAR-TAF

Lotnisko :

Chaitén, Chile

Szerokość geograficzna: 42-55-58S, Długość geograficzna: 072-41-58W, wysokość: 4 m

Aktualna obserwacja pogody

Raport powstał 19 minut temu, godzina 13:00 UTC
Wiatr 10 kt od północno-północny wschód, zmienny między północ i północny wschód
Temperatura 9°C
Wilgotność 81%
Ciśnienie 1002 hPa
Widzialność 10 km lub więcej
Rozproszone chmury na wysokości 4000 ft
Zachmurzenie całkowite na wysokości 6000 ft

METAR: SCTN 211300Z 02010KT 350V050 9999 SCT040 OVC060 09/06 Q1002

czas: 09:19 (13:19 UTC)


TAF: brakujący

Obserwacja i prognoza pogody dla ponad 4000 lotnisk (raport METAR i TAF).

Dostępne stacje oznaczono żółtymi i czerwonymi punktami na mapie.

Najedź kursorem aby zobaczyć nazwę stacji.

Kliknij aby zobaczyć obserwacje i prognozy pogody.

Aby zmienić mapę: kliknij na zielony przycisk z czarnym krzyżykiem, aby powiększyć; na zielony przycisk z myślnikiem, aby pomniejszyć; na zielone strzałki, aby przejść do map sąsiednich.


METAR-TAF: